createdAt,value
2019-02-04T00:00:16.325Z,3.17
2019-02-04T00:11:19.130Z,3.17
2019-02-04T00:22:20.943Z,3.17
2019-02-04T00:33:25.295Z,3.16
2019-02-04T00:44:28.900Z,3.15
2019-02-04T00:55:31.499Z,3.15
2019-02-04T01:06:35.377Z,3.15
2019-02-04T01:17:34.066Z,3.15
2019-02-04T01:28:34.855Z,3.15
2019-02-04T01:39:20.920Z,3.15
2019-02-04T01:50:22.251Z,3.14
2019-02-04T02:01:23.903Z,3.14
2019-02-04T02:12:28.642Z,3.14
2019-02-04T02:23:29.782Z,3.14
2019-02-04T02:34:31.030Z,3.13
2019-02-04T02:45:35.861Z,3.13
2019-02-04T02:56:40.297Z,3.13
2019-02-04T03:07:44.218Z,3.12
2019-02-04T03:18:43.373Z,3.12
2019-02-04T03:29:41.043Z,3.11
2019-02-04T03:40:41.865Z,3.11
2019-02-04T03:51:41.798Z,3.11
2019-02-04T04:02:43.766Z,3.11
2019-02-04T04:13:49.485Z,3.11
2019-02-04T04:24:50.069Z,3.11
2019-02-04T04:35:48.921Z,3.10
2019-02-04T04:46:49.188Z,3.10
2019-02-04T04:57:49.400Z,3.10
2019-02-04T05:08:51.238Z,3.10
2019-02-04T05:19:56.196Z,3.10
2019-02-04T05:30:54.073Z,3.09
2019-02-04T05:41:55.169Z,3.09
2019-02-04T05:52:57.237Z,3.09
2019-02-04T06:03:56.751Z,3.08
2019-02-04T06:14:55.958Z,3.07
2019-02-04T06:25:57.830Z,3.07
2019-02-04T06:36:59.119Z,3.08
2019-02-04T06:47:57.527Z,3.08
2019-02-04T06:58:59.513Z,3.08
2019-02-04T07:10:04.667Z,3.10
2019-02-04T07:20:51.181Z,3.10
2019-02-04T07:31:52.808Z,3.11
2019-02-04T07:42:52.127Z,3.13
2019-02-04T07:53:45.952Z,3.14
2019-02-04T08:04:49.241Z,3.15
2019-02-04T08:15:53.803Z,3.16
2019-02-04T08:26:55.163Z,3.17
2019-02-04T08:37:56.220Z,3.18
2019-02-04T08:48:59.244Z,3.19
2019-02-04T09:00:03.460Z,3.21
2019-02-04T09:11:03.853Z,3.21
2019-02-04T09:22:04.430Z,3.22
2019-02-04T09:33:09.371Z,3.23
2019-02-04T09:44:09.572Z,3.25
2019-02-04T09:55:13.552Z,3.25
2019-02-04T10:06:16.655Z,3.26
2019-02-04T10:17:19.970Z,3.26
2019-02-04T10:28:19.461Z,3.27
2019-02-04T10:39:18.196Z,3.28
2019-02-04T10:50:22.230Z,3.29
2019-02-04T11:01:17.488Z,3.29
2019-02-04T11:12:21.780Z,3.40
2019-02-04T11:23:20.860Z,3.45
2019-02-04T11:34:19.435Z,3.40
2019-02-04T11:45:19.271Z,3.41
2019-02-04T11:56:20.429Z,3.39
2019-02-04T12:07:19.629Z,3.39
2019-02-04T12:18:21.795Z,3.38
2019-02-04T12:29:25.480Z,3.37
2019-02-04T12:40:29.779Z,3.39
2019-02-04T12:51:33.676Z,3.37
2019-02-04T13:02:35.219Z,3.36
2019-02-04T13:13:37.765Z,3.39
2019-02-04T13:24:41.631Z,3.37
2019-02-04T13:35:45.060Z,3.39
2019-02-04T13:46:41.172Z,3.39
2019-02-04T13:57:45.070Z,3.40
2019-02-04T14:08:30.630Z,3.41
2019-02-04T14:19:32.168Z,3.40
2019-02-04T14:30:25.771Z,3.39
2019-02-04T14:41:20.096Z,3.41
2019-02-04T14:52:21.749Z,3.38
2019-02-04T15:03:22.991Z,3.42
2019-02-04T15:14:21.516Z,3.41
2019-02-04T15:25:21.228Z,3.41
2019-02-04T15:36:19.272Z,3.40
2019-02-04T15:47:16.829Z,3.38
2019-02-04T15:58:14.155Z,3.37
2019-02-04T16:09:15.162Z,3.36
2019-02-04T16:20:13.854Z,3.34
2019-02-04T16:31:13.093Z,3.34
2019-02-04T16:42:10.502Z,3.33
2019-02-04T16:53:10.895Z,3.32
2019-02-04T17:04:09.623Z,3.31
2019-02-04T17:15:00.776Z,3.31
2019-02-04T17:26:01.223Z,3.30
2019-02-04T17:37:02.853Z,3.29
2019-02-04T17:48:02.483Z,3.29
2019-02-04T17:59:01.201Z,3.28
2019-02-04T18:09:56.888Z,3.28
2019-02-04T18:20:57.553Z,3.28
2019-02-04T18:32:00.887Z,3.28
2019-02-04T18:43:03.333Z,3.28
2019-02-04T18:53:58.594Z,3.28
2019-02-04T19:04:55.864Z,3.28
2019-02-04T19:15:47.884Z,3.27
2019-02-04T19:26:45.961Z,3.27
2019-02-04T19:37:39.140Z,3.26
2019-02-04T19:48:37.980Z,3.26
2019-02-04T19:59:35.257Z,3.26
2019-02-04T20:10:36.528Z,3.25
2019-02-04T20:21:26.058Z,3.25
2019-02-04T20:32:27.132Z,3.25
2019-02-04T20:43:30.271Z,3.25
2019-02-04T20:54:28.395Z,3.25
2019-02-04T21:05:29.085Z,3.24
2019-02-04T21:16:30.545Z,3.24
2019-02-04T21:27:26.777Z,3.23
2019-02-04T21:38:29.473Z,3.23
2019-02-04T21:49:28.999Z,3.22
2019-02-04T22:00:29.683Z,3.22
2019-02-04T22:11:31.028Z,3.22
2019-02-04T22:22:33.613Z,3.22
2019-02-04T22:33:37.913Z,3.21
2019-02-04T22:44:38.439Z,3.21
2019-02-04T22:55:41.783Z,3.21
2019-02-04T23:06:44.717Z,3.20
2019-02-04T23:17:45.067Z,3.20
2019-02-04T23:28:34.114Z,3.19
2019-02-04T23:39:38.450Z,3.19
2019-02-04T23:50:42.728Z,3.19
